Time;durP1;ratioP1;P1;durP2;ratioP2;P2;SDS_P1;SDS_P2;PMS_P1;PMS_P2;Temp;Humidity;BMP_temperature;BMP_pressure;BME280_temperature;BME280_humidity;BME280_pressure;Samples;Min_cycle;Max_cycle;Signal;HPM_P1;HPM_P2
2023/08/28 00:00:47;;;;;;;7.28;6.60;;;;;;;12.20;100.00;100574.56;4941500;28;20186;-46
2023/08/28 00:03:12;;;;;;;6.90;6.18;;;;;;;12.19;100.00;100576.41;4938386;28;20183;-46
2023/08/28 00:05:38;;;;;;;6.78;6.18;;;;;;;12.12;100.00;100585.72;4941706;28;20688;-44
2023/08/28 00:08:04;;;;;;;7.70;6.20;;;;;;;12.15;100.00;100588.22;4941045;28;20241;-44
2023/08/28 00:10:31;;;;;;;6.68;6.07;;;;;;;12.18;100.00;100590.78;4935671;28;20610;-45
2023/08/28 00:12:56;;;;;;;7.35;6.65;;;;;;;12.15;100.00;100589.09;4940317;28;20243;-45
2023/08/28 00:15:22;;;;;;;7.28;6.68;;;;;;;12.11;100.00;100586.63;4940503;28;20198;-44
2023/08/28 00:17:48;;;;;;;7.68;6.97;;;;;;;12.11;100.00;100586.63;4937357;28;20206;-46
2023/08/28 00:20:14;;;;;;;8.02;7.00;;;;;;;12.14;100.00;100591.88;4932807;28;20195;-45
2023/08/28 00:22:40;;;;;;;9.48;7.10;;;;;;;12.12;100.00;100593.75;4941358;28;20226;-45
2023/08/28 00:25:09;;;;;;;7.90;7.18;;;;;;;12.08;100.00;100597.53;4941001;28;20294;-44
2023/08/28 00:27:35;;;;;;;9.48;8.30;;;;;;;12.07;100.00;100594.00;4937911;28;20187;-45
2023/08/28 00:30:01;;;;;;;9.43;8.27;;;;;;;12.02;100.00;100590.63;4939569;28;20194;-45
2023/08/28 00:32:27;;;;;;;8.98;8.27;;;;;;;12.00;100.00;100600.56;4933433;28;20194;-44
2023/08/28 00:34:53;;;;;;;8.80;8.00;;;;;;;12.03;100.00;100594.22;4938000;28;20182;-46
2023/08/28 00:37:19;;;;;;;8.13;7.40;;;;;;;12.03;100.00;100588.84;4938213;28;20179;-44
2023/08/28 00:39:44;;;;;;;7.40;6.70;;;;;;;12.12;100.00;100581.19;4945228;28;20257;-45
2023/08/28 00:42:10;;;;;;;8.57;7.68;;;;;;;12.00;100.00;100588.97;4932605;28;20182;-44
2023/08/28 00:44:35;;;;;;;8.45;7.25;;;;;;;11.99;100.00;100596.16;4940751;28;20195;-45
2023/08/28 00:47:02;;;;;;;8.38;7.45;;;;;;;11.89;100.00;100600.22;4937605;28;20182;-45
2023/08/28 00:49:30;;;;;;;8.45;7.65;;;;;;;11.93;100.00;100599.13;4940060;28;20201;-45
2023/08/28 00:51:56;;;;;;;8.30;7.53;;;;;;;11.94;100.00;100598.22;4934448;28;20525;-44
2023/08/28 00:54:23;;;;;;;7.88;7.07;;;;;;;11.91;100.00;100611.75;4941842;28;20177;-44
2023/08/28 00:56:49;;;;;;;7.93;7.22;;;;;;;11.93;100.00;100609.88;4937981;28;20573;-45
2023/08/28 00:59:16;;;;;;;9.20;8.20;;;;;;;11.95;100.00;100608.84;4940833;28;20631;-44
2023/08/28 01:01:42;;;;;;;10.57;7.63;;;;;;;11.97;100.00;100610.63;4936816;28;20186;-44
2023/08/28 01:04:07;;;;;;;8.57;6.80;;;;;;;11.92;100.00;100609.00;4935676;28;20191;-45
2023/08/28 01:06:53;;;;;;;7.95;7.22;;;;;;;11.88;100.00;100596.69;4943640;28;20579;-44
2023/08/28 01:09:39;;;;;;;7.85;6.60;;;;;;;11.99;100.00;100604.22;4955529;28;20199;-46
2023/08/28 01:12:20;;;;;;;8.07;7.28;;;;;;;11.93;100.00;100593.78;4940261;28;20242;-45
2023/08/28 01:15:06;;;;;;;8.60;7.72;;;;;;;11.93;100.00;100585.72;4941808;28;20178;-46
2023/08/28 01:17:32;;;;;;;8.45;7.10;;;;;;;11.99;100.00;100588.13;4946022;28;20669;-46
2023/08/28 01:19:59;;;;;;;10.80;7.20;;;;;;;11.89;100.00;100595.72;4944745;28;20230;-47
2023/08/28 01:23:04;;;;;;;8.27;7.57;;;;;;;11.90;100.00;100583.19;4943600;28;20399;-46
2023/08/28 01:25:31;;;;;;;7.82;7.13;;;;;;;11.93;100.00;100581.22;4937594;28;20172;-46
2023/08/28 01:27:58;;;;;;;8.65;7.45;;;;;;;11.93;100.00;100581.22;4945595;28;20196;-45
2023/08/28 01:30:24;;;;;;;9.68;7.57;;;;;;;11.89;100.00;100582.28;4936871;28;20285;-45
2023/08/28 01:32:50;;;;;;;8.65;7.72;;;;;;;11.99;100.00;100587.25;4946786;28;20514;-45
2023/08/28 01:35:29;;;;;;;9.18;8.05;;;;;;;12.00;100.00;100589.84;4952509;28;20179;-46
2023/08/28 01:37:57;;;;;;;8.38;7.57;;;;;;;11.98;100.00;100591.72;4939127;28;20194;-45
2023/08/28 01:40:30;;;;;;;7.88;7.18;;;;;;;11.98;100.00;100596.22;4941622;28;20187;-45
2023/08/28 01:42:56;;;;;;;8.45;7.68;;;;;;;12.03;100.00;100594.22;4946890;28;20610;-45
2023/08/28 01:45:22;;;;;;;8.98;7.45;;;;;;;11.99;100.00;100598.84;4949033;28;20175;-45
2023/08/28 01:47:49;;;;;;;9.43;7.65;;;;;;;12.06;100.00;100597.59;4942493;28;20666;-45
2023/08/28 01:50:14;;;;;;;8.38;7.35;;;;;;;12.09;100.00;100588.53;4939407;28;20294;-45
2023/08/28 01:52:40;;;;;;;7.90;7.20;;;;;;;12.02;100.00;100579.91;4934679;28;20274;-44
2023/08/28 01:55:06;;;;;;;9.27;8.13;;;;;;;12.00;100.00;100576.41;4945492;28;20190;-46
2023/08/28 01:57:32;;;;;;;8.43;7.63;;;;;;;11.98;100.00;100577.44;4941876;28;20281;-44
2023/08/28 01:59:58;;;;;;;8.40;7.60;;;;;;;12.05;100.00;100573.53;4946038;28;20199;-46
2023/08/28 02:02:24;;;;;;;8.23;7.30;;;;;;;12.07;100.00;100585.03;4943360;28;20179;-45
2023/08/28 02:04:49;;;;;;;8.98;7.80;;;;;;;-146.87;100.00;60295.22;4938562;28;20211;-45
2023/08/28 02:07:16;;;;;;;8.57;7.68;;;;;;;-146.87;100.00;60295.22;4946283;28;20225;-45
2023/08/28 02:09:41;;;;;;;9.65;7.65;;;;;;;-146.87;100.00;60295.22;4938843;28;20203;-45
2023/08/28 02:12:07;;;;;;;8.55;7.05;;;;;;;-146.87;100.00;60295.22;4943509;28;20185;-45
2023/08/28 02:14:32;;;;;;;8.23;7.38;;;;;;;-146.87;100.00;60295.22;4941586;28;20186;-43
2023/08/28 02:16:57;;;;;;;8.32;7.57;;;;;;;-146.87;100.00;60295.22;4941973;28;20267;-45
2023/08/28 02:19:23;;;;;;;10.63;7.88;;;;;;;-146.87;100.00;60295.22;4938207;28;20218;-43
2023/08/28 02:21:49;;;;;;;10.88;6.90;;;;;;;-146.87;100.00;60295.22;4943493;28;20270;-47
2023/08/28 02:24:14;;;;;;;7.55;6.95;;;;;;;-146.87;100.00;60295.22;4941447;28;20266;-45
2023/08/28 02:26:40;;;;;;;8.57;7.57;;;;;;;-146.87;100.00;60295.22;4937537;28;20262;-47
2023/08/28 02:29:05;;;;;;;7.57;6.93;;;;;;;-146.87;100.00;60295.22;4939766;28;20241;-47
2023/08/28 02:31:31;;;;;;;8.80;8.00;;;;;;;-146.87;100.00;60295.22;4940969;28;20187;-45
2023/08/28 02:33:57;;;;;;;8.88;7.97;;;;;;;-146.87;100.00;60295.22;4939844;28;20170;-45
2023/08/28 02:36:22;;;;;;;8.85;8.05;;;;;;;-146.87;100.00;60295.22;4943358;28;20175;-47
2023/08/28 02:38:49;;;;;;;8.70;7.95;;;;;;;-146.87;100.00;60295.22;4938566;28;20227;-45
2023/08/28 02:41:15;;;;;;;8.60;7.90;;;;;;;-146.87;100.00;60295.22;4937714;28;20210;-45
2023/08/28 02:43:42;;;;;;;10.00;8.68;;;;;;;-146.87;100.00;60295.22;4935646;28;20195;-45
2023/08/28 02:46:08;;;;;;;10.05;8.50;;;;;;;-146.87;100.00;60295.22;4936840;28;20183;-45
2023/08/28 02:48:33;;;;;;;9.25;8.40;;;;;;;-146.87;100.00;60295.22;4939008;28;20191;-47
2023/08/28 02:50:59;;;;;;;8.90;8.00;;;;;;;-146.87;100.00;60295.22;4938348;28;20175;-45
2023/08/28 02:53:25;;;;;;;10.77;8.60;;;;;;;-146.87;100.00;60295.22;4937087;28;20190;-45
2023/08/28 02:56:21;;;;;;;8.98;8.25;;;;;;;-146.87;100.00;60295.22;4943503;28;20315;-45
2023/08/28 02:58:46;;;;;;;9.98;8.57;;;;;;;-146.87;100.00;60295.22;4935477;28;20278;-45
2023/08/28 03:01:12;;;;;;;8.50;7.55;;;;;;;-146.87;100.00;60295.22;4937029;28;20741;-46
2023/08/28 03:03:38;;;;;;;9.70;8.73;;;;;;;-146.87;100.00;60295.22;4938506;28;20178;-46
2023/08/28 03:06:03;;;;;;;9.15;7.97;;;;;;;-146.87;100.00;60295.22;4938870;28;20313;-46
2023/08/28 03:08:29;;;;;;;8.73;7.80;;;;;;;-146.87;100.00;60295.22;4936966;28;20203;-46
2023/08/28 03:10:55;;;;;;;8.05;7.25;;;;;;;-146.87;100.00;60295.22;4939811;28;20283;-45
2023/08/28 03:13:20;;;;;;;8.32;7.53;;;;;;;-146.87;100.00;60295.22;4940587;28;20175;-46
2023/08/28 03:15:46;;;;;;;8.82;7.97;;;;;;;-146.87;100.00;60295.22;4939981;28;20556;-47
2023/08/28 03:18:12;;;;;;;8.38;7.55;;;;;;;-146.87;100.00;60295.22;4940293;28;20174;-46
2023/08/28 03:20:37;;;;;;;8.20;7.55;;;;;;;-146.87;100.00;60295.22;4935959;28;20285;-47
2023/08/28 03:23:03;;;;;;;9.50;7.95;;;;;;;-146.87;100.00;60295.22;4938651;28;20175;-45
2023/08/28 03:25:29;;;;;;;9.32;8.43;;;;;;;-146.87;100.00;60295.22;4941918;28;20602;-46
2023/08/28 03:27:55;;;;;;;9.10;8.27;;;;;;;-146.87;100.00;60295.22;4940027;28;20174;-45
2023/08/28 03:30:21;;;;;;;8.82;8.02;;;;;;;-146.87;100.00;60295.22;4939044;28;20619;-45
2023/08/28 03:32:46;;;;;;;8.85;8.10;;;;;;;-146.87;100.00;60295.22;4933354;28;20195;-47
2023/08/28 03:35:12;;;;;;;7.85;7.22;;;;;;;-146.87;100.00;60295.22;4940512;28;20183;-46
2023/08/28 03:37:38;;;;;;;8.80;7.97;;;;;;;-146.87;100.00;60295.22;4937086;28;20278;-47
2023/08/28 03:40:04;;;;;;;7.93;7.13;;;;;;;-146.87;100.00;60295.22;4941390;28;20294;-45
2023/08/28 03:42:29;;;;;;;12.15;9.05;;;;;;;-146.87;100.00;60295.22;4938534;28;20261;-46
2023/08/28 03:44:55;;;;;;;12.82;9.02;;;;;;;-146.87;100.00;60295.22;4940957;28;20501;-44
2023/08/28 03:47:21;;;;;;;9.82;9.02;;;;;;;-146.87;100.00;60295.22;4940056;28;20175;-46
2023/08/28 03:49:47;;;;;;;9.75;8.77;;;;;;;-146.87;100.00;60295.22;4947551;28;20248;-46
2023/08/28 03:52:13;;;;;;;10.95;9.75;;;;;;;-146.87;100.00;60295.22;4935182;28;20184;-46
2023/08/28 03:54:39;;;;;;;10.43;9.02;;;;;;;-146.87;100.00;60295.22;4934931;28;20542;-45
2023/08/28 03:57:06;;;;;;;10.02;9.02;;;;;;;-146.87;100.00;60295.22;4939401;28;20182;-46
2023/08/28 03:59:31;;;;;;;10.90;9.85;;;;;;;-146.87;100.00;60295.22;4943232;28;20258;-45
2023/08/28 04:01:57;;;;;;;10.55;9.07;;;;;;;-146.87;100.00;60295.22;4941693;28;20705;-46
2023/08/28 04:04:22;;;;;;;10.80;9.75;;;;;;;-146.87;100.00;60295.22;4938962;28;20220;-45
2023/08/28 04:06:48;;;;;;;10.73;9.63;;;;;;;-146.87;100.00;60295.22;4939704;28;20167;-45
2023/08/28 04:09:14;;;;;;;11.13;9.90;;;;;;;-146.87;100.00;60295.22;4944944;28;20257;-46
2023/08/28 04:11:40;;;;;;;10.98;9.98;;;;;;;-146.87;100.00;60295.22;4938444;28;20183;-46
2023/08/28 04:14:06;;;;;;;10.60;9.25;;;;;;;-146.87;100.00;60295.22;4937996;28;20669;-46
2023/08/28 04:16:32;;;;;;;10.45;9.45;;;;;;;-146.87;100.00;60295.22;4930414;28;20183;-46
2023/08/28 04:18:58;;;;;;;12.93;10.13;;;;;;;-146.87;100.00;60295.22;4938101;28;20207;-45
2023/08/28 04:21:23;;;;;;;11.23;10.23;;;;;;;-146.87;100.00;60295.22;4934173;28;20202;-46
2023/08/28 04:23:49;;;;;;;11.15;10.05;;;;;;;-146.87;100.00;60295.22;4933353;28;20274;-46
2023/08/28 04:26:14;;;;;;;11.20;10.15;;;;;;;-146.87;100.00;60295.22;4941338;28;20203;-45
2023/08/28 04:28:40;;;;;;;10.85;9.98;;;;;;;-146.87;100.00;60295.22;4939359;28;20198;-46
2023/08/28 04:31:09;;;;;;;11.30;10.20;;;;;;;-146.87;100.00;60295.22;4937458;28;20602;-46
2023/08/28 04:33:35;;;;;;;10.20;9.25;;;;;;;-146.87;100.00;60295.22;4940732;28;20198;-46
2023/08/28 04:36:01;;;;;;;10.55;9.75;;;;;;;-146.87;100.00;60295.22;4936743;28;20220;-47
2023/08/28 04:38:26;;;;;;;10.65;9.55;;;;;;;-146.87;100.00;60295.22;4944924;28;20195;-46
2023/08/28 04:40:52;;;;;;;10.23;9.38;;;;;;;-146.87;100.00;60295.22;4936500;28;20618;-46
2023/08/28 04:43:17;;;;;;;11.00;9.48;;;;;;;-146.87;100.00;60295.22;4941323;28;21062;-47
2023/08/28 04:45:43;;;;;;;11.43;9.85;;;;;;;-146.87;100.00;60295.22;4935673;28;20202;-45
2023/08/28 04:48:08;;;;;;;12.63;10.00;;;;;;;-146.87;100.00;60295.22;4936071;28;20183;-47
2023/08/28 04:50:34;;;;;;;10.20;9.30;;;;;;;-146.87;100.00;60295.22;4938332;28;20234;-47
2023/08/28 04:53:00;;;;;;;10.43;9.38;;;;;;;-146.87;100.00;60295.22;4940529;28;20218;-46
2023/08/28 04:55:26;;;;;;;10.30;9.20;;;;;;;-146.87;100.00;60295.22;4936612;28;20179;-46
2023/08/28 04:57:51;;;;;;;10.48;9.27;;;;;;;-146.87;100.00;60295.22;4940340;28;20182;-47
2023/08/28 05:00:17;;;;;;;9.23;8.45;;;;;;;-146.87;100.00;60295.22;4941613;28;20333;-48
2023/08/28 05:02:42;;;;;;;9.18;8.30;;;;;;;-146.87;100.00;60295.22;4940684;28;20199;-46
2023/08/28 05:05:08;;;;;;;8.32;7.55;;;;;;;-146.87;100.00;60295.22;4932535;28;20186;-46
2023/08/28 05:07:34;;;;;;;8.35;7.57;;;;;;;-146.87;100.00;60295.22;4936271;28;20179;-47
2023/08/28 05:10:01;;;;;;;8.43;6.55;;;;;;;-146.87;100.00;60295.22;4939347;28;20258;-48
2023/08/28 05:12:26;;;;;;;6.82;6.20;;;;;;;-146.87;100.00;60295.22;4939192;28;20207;-46
2023/08/28 05:14:52;;;;;;;7.28;6.57;;;;;;;-146.87;100.00;60295.22;4933648;28;20206;-46
2023/08/28 05:17:17;;;;;;;6.57;5.97;;;;;;;-146.87;100.00;60295.22;4933948;28;20202;-46
2023/08/28 05:19:43;;;;;;;6.22;5.63;;;;;;;-146.87;100.00;60295.22;4936326;28;20199;-45
2023/08/28 05:22:08;;;;;;;6.18;5.65;;;;;;;-146.87;100.00;60295.22;4934989;28;20184;-46
2023/08/28 05:24:34;;;;;;;6.13;5.53;;;;;;;-146.87;100.00;60295.22;4935674;28;20261;-46
2023/08/28 05:26:59;;;;;;;7.25;5.25;;;;;;;-146.87;100.00;60295.22;4936312;28;20180;-46
2023/08/28 05:29:25;;;;;;;6.57;4.95;;;;;;;-146.87;100.00;60295.22;4933422;28;20431;-45
2023/08/28 05:31:50;;;;;;;6.13;4.60;;;;;;;-146.87;100.00;60295.22;4933890;28;20203;-48
2023/08/28 05:34:16;;;;;;;5.03;4.53;;;;;;;-146.87;100.00;60295.22;4940043;28;20182;-46
2023/08/28 05:36:41;;;;;;;4.63;3.95;;;;;;;-146.87;100.00;60295.22;4934593;28;20307;-45
2023/08/28 05:39:07;;;;;;;8.95;4.47;;;;;;;-146.87;100.00;60295.22;4931481;28;20195;-45
2023/08/28 05:41:33;;;;;;;4.15;3.85;;;;;;;-146.87;100.00;60295.22;4938679;28;20183;-46
2023/08/28 05:43:58;;;;;;;3.13;2.90;;;;;;;-146.87;100.00;60295.22;4938030;28;20195;-46
2023/08/28 05:46:24;;;;;;;4.47;3.45;;;;;;;-146.87;100.00;60295.22;4936226;28;20872;-47
2023/08/28 05:48:50;;;;;;;5.53;2.88;;;;;;;-146.87;100.00;60295.22;4942295;28;20178;-46
2023/08/28 05:51:15;;;;;;;5.50;2.65;;;;;;;-146.87;100.00;60295.22;4941529;28;20180;-45
2023/08/28 05:53:41;;;;;;;2.38;2.20;;;;;;;-146.87;100.00;60295.22;4943418;28;20259;-45
2023/08/28 05:56:07;;;;;;;3.45;2.20;;;;;;;-146.87;100.00;60295.22;4940495;28;20199;-46
2023/08/28 05:58:32;;;;;;;2.83;2.17;;;;;;;-146.87;100.00;60295.22;4941038;28;20198;-46
2023/08/28 06:00:58;;;;;;;3.33;2.35;;;;;;;-146.87;100.00;60295.22;4944778;28;20259;-46
2023/08/28 06:03:23;;;;;;;3.50;2.38;;;;;;;-146.87;100.00;60295.22;4935147;28;20213;-47
2023/08/28 06:05:50;;;;;;;4.82;2.38;;;;;;;-146.87;100.00;60295.22;4937349;28;20668;-46
2023/08/28 06:08:16;;;;;;;6.45;2.00;;;;;;;-146.87;100.00;60295.22;4945405;28;20206;-46
2023/08/28 06:10:42;;;;;;;4.15;1.65;;;;;;;-146.87;100.00;60295.22;4946475;28;20206;-47
2023/08/28 06:13:10;;;;;;;2.35;1.45;;;;;;;-146.87;100.00;60295.22;4938914;28;20183;-46
2023/08/28 06:15:35;;;;;;;5.78;1.52;;;;;;;-146.87;100.00;60295.22;4938224;28;20260;-47
2023/08/28 06:18:00;;;;;;;4.20;1.40;;;;;;;-146.87;100.00;60295.22;4941270;28;20556;-45
2023/08/28 06:20:28;;;;;;;2.38;1.15;;;;;;;-146.87;100.00;60295.22;4942556;28;20215;-46
2023/08/28 06:22:53;;;;;;;5.53;1.30;;;;;;;-146.87;100.00;60295.22;4938985;28;20171;-47
2023/08/28 06:25:19;;;;;;;6.15;1.45;;;;;;;-146.87;100.00;60295.22;4944629;28;20183;-46
2023/08/28 06:27:44;;;;;;;5.15;1.17;;;;;;;-146.87;100.00;60295.22;4941720;28;20185;-45
2023/08/28 06:30:10;;;;;;;2.85;0.80;;;;;;;-146.87;100.00;60295.22;4942238;28;20191;-46
2023/08/28 06:32:36;;;;;;;3.97;1.20;;;;;;;-146.87;100.00;60295.22;4934312;28;20325;-46
2023/08/28 06:35:02;;;;;;;4.13;1.27;;;;;;;-146.87;100.00;60295.22;4939012;28;20265;-46
2023/08/28 06:37:27;;;;;;;3.95;0.95;;;;;;;-146.87;100.00;60295.22;4940841;28;20179;-44
2023/08/28 06:39:53;;;;;;;1.73;0.70;;;;;;;-146.87;100.00;60295.22;4936872;28;20226;-46
2023/08/28 06:42:19;;;;;;;4.85;1.00;;;;;;;-146.87;100.00;60295.22;4937665;28;20246;-45
2023/08/28 06:44:45;;;;;;;3.50;1.05;;;;;;;-146.87;100.00;60295.22;4940235;28;20187;-46
2023/08/28 06:47:10;;;;;;;2.83;1.17;;;;;;;-146.87;100.00;60295.22;4938069;28;20180;-45
2023/08/28 06:49:36;;;;;;;5.28;1.20;;;;;;;-146.87;100.00;60295.22;4937946;28;20698;-46
2023/08/28 06:52:03;;;;;;;3.60;0.90;;;;;;;-146.87;100.00;60295.22;4942078;28;20191;-44
2023/08/28 06:54:29;;;;;;;3.72;0.95;;;;;;;-146.87;100.00;60295.22;4937414;28;20682;-45
2023/08/28 06:56:55;;;;;;;3.22;1.30;;;;;;;-146.87;100.00;60295.22;4936167;28;20271;-46
2023/08/28 06:59:20;;;;;;;2.53;1.10;;;;;;;-146.87;100.00;60295.22;4939603;28;20246;-46
2023/08/28 07:01:46;;;;;;;7.53;1.50;;;;;;;-146.87;100.00;60295.22;4936792;28;20209;-46
2023/08/28 07:04:11;;;;;;;3.72;1.27;;;;;;;-146.87;100.00;60295.22;4937975;28;20683;-45
2023/08/28 07:06:36;;;;;;;3.15;1.20;;;;;;;-146.87;100.00;60295.22;4934959;28;20395;-46
2023/08/28 07:09:02;;;;;;;3.33;0.90;;;;;;;-146.87;100.00;60295.22;4939987;28;20345;-46
2023/08/28 07:11:28;;;;;;;2.65;1.10;;;;;;;-146.87;100.00;60295.22;4938295;28;20569;-45
2023/08/28 07:13:54;;;;;;;7.00;1.20;;;;;;;-146.87;100.00;60295.22;4937030;28;20213;-45
2023/08/28 07:16:20;;;;;;;3.20;1.13;;;;;;;-146.87;100.00;60295.22;4938188;28;20599;-45
2023/08/28 07:18:45;;;;;;;2.90;1.05;;;;;;;-146.87;100.00;60295.22;4938973;28;20199;-45
2023/08/28 07:21:11;;;;;;;2.88;1.13;;;;;;;-146.87;100.00;60295.22;4942286;28;20343;-46
2023/08/28 07:23:36;;;;;;;2.20;1.08;;;;;;;-146.87;100.00;60295.22;4936404;28;20254;-45
2023/08/28 07:26:03;;;;;;;4.40;1.27;;;;;;;-146.87;100.00;60295.22;4936636;28;20673;-44
2023/08/28 07:28:29;;;;;;;5.05;1.05;;;;;;;-146.87;100.00;60295.22;4934174;28;20647;-45
2023/08/28 07:30:59;;;;;;;2.53;1.08;;;;;;;-146.87;100.00;60295.22;4936632;28;20281;-45
2023/08/28 07:33:25;;;;;;;6.75;1.23;;;;;;;-146.87;100.00;60295.22;4937915;28;20186;-46
2023/08/28 07:35:51;;;;;;;4.25;1.23;;;;;;;-146.87;100.00;60295.22;4936161;28;20186;-45
2023/08/28 07:38:17;;;;;;;2.60;0.93;;;;;;;-146.87;100.00;60295.22;4937731;28;20762;-46
2023/08/28 07:40:43;;;;;;;2.67;1.00;;;;;;;-146.87;100.00;60295.22;4937550;28;20194;-45
2023/08/28 07:43:08;;;;;;;3.28;0.93;;;;;;;-146.87;100.00;60295.22;4937440;28;20194;-45
2023/08/28 07:45:34;;;;;;;4.47;1.00;;;;;;;-146.87;100.00;60295.22;4935208;28;20179;-45
2023/08/28 07:47:59;;;;;;;1.63;0.80;;;;;;;-146.87;100.00;60295.22;4937784;28;20198;-43
2023/08/28 07:50:28;;;;;;;4.28;1.00;;;;;;;-146.87;100.00;60295.22;4938360;28;20206;-45
2023/08/28 07:52:54;;;;;;;6.00;1.00;;;;;;;-146.87;100.00;60295.22;4936645;28;20186;-46
2023/08/28 07:55:19;;;;;;;4.10;0.93;;;;;;;-146.87;100.00;60295.22;4939350;28;20184;-44
2023/08/28 07:57:45;;;;;;;3.28;0.98;;;;;;;-146.87;100.00;60295.22;4938517;28;20242;-45
2023/08/28 08:00:13;;;;;;;2.47;0.90;;;;;;;-146.87;100.00;60295.22;4939209;28;20203;-45
2023/08/28 08:02:40;;;;;;;2.75;0.88;;;;;;;-146.87;100.00;60295.22;4939663;28;20210;-45
2023/08/28 08:05:06;;;;;;;1.45;0.70;;;;;;;-146.87;100.00;60295.22;4938160;28;20190;-45
2023/08/28 08:07:32;;;;;;;1.10;0.60;;;;;;;-146.87;100.00;60295.22;4940908;28;20187;-45
2023/08/28 08:09:58;;;;;;;1.33;0.63;;;;;;;-146.87;100.00;60295.22;4933586;28;20211;-45
2023/08/28 08:12:26;;;;;;;2.97;0.80;;;;;;;-146.87;100.00;60295.22;4942177;28;20182;-45
2023/08/28 08:14:51;;;;;;;2.03;0.65;;;;;;;-146.87;100.00;60295.22;4937602;28;20190;-45
2023/08/28 08:17:17;;;;;;;1.38;0.60;;;;;;;-146.87;100.00;60295.22;4954181;28;20302;-46
2023/08/28 08:19:42;;;;;;;1.98;0.75;;;;;;;-146.87;100.00;60295.22;4933400;28;20194;-45
2023/08/28 08:22:08;;;;;;;2.70;0.90;;;;;;;-146.87;100.00;60295.22;4938280;28;20187;-46
2023/08/28 08:24:33;;;;;;;4.10;1.02;;;;;;;-146.87;100.00;60295.22;4939702;28;20198;-44
2023/08/28 08:26:59;;;;;;;1.52;0.65;;;;;;;-146.87;100.00;60295.22;4938861;28;20178;-45
2023/08/28 08:29:25;;;;;;;1.35;0.57;;;;;;;-146.87;100.00;60295.22;4938052;28;20199;-45
2023/08/28 08:31:53;;;;;;;1.25;0.65;;;;;;;-146.87;100.00;60295.22;4940010;28;20189;-46
2023/08/28 08:34:19;;;;;;;3.95;0.75;;;;;;;-146.87;100.00;60295.22;4939424;28;20181;-46
2023/08/28 08:36:44;;;;;;;1.95;0.75;;;;;;;-146.87;100.00;60295.22;4936152;28;20175;-45
2023/08/28 08:39:10;;;;;;;2.22;0.75;;;;;;;-146.87;100.00;60295.22;4941309;28;20211;-46
2023/08/28 08:41:38;;;;;;;2.35;0.85;;;;;;;-146.87;100.00;60295.22;4941277;28;20222;-45
2023/08/28 08:44:04;;;;;;;2.00;0.93;;;;;;;-146.87;100.00;60295.22;4941350;28;20233;-45
2023/08/28 08:46:31;;;;;;;4.03;0.80;;;;;;;-146.87;100.00;60295.22;4936627;28;20183;-46
2023/08/28 08:49:00;;;;;;;2.58;0.65;;;;;;;-146.87;100.00;60295.22;4937003;28;20301;-46
2023/08/28 08:51:30;;;;;;;2.47;0.80;;;;;;;-146.87;100.00;60295.22;4940234;28;20570;-44
2023/08/28 08:53:55;;;;;;;2.67;1.35;;;;;;;-146.87;100.00;60295.22;4937014;28;20183;-45
2023/08/28 08:56:23;;;;;;;2.08;0.77;;;;;;;-146.87;100.00;60295.22;4939688;28;20616;-46
2023/08/28 08:58:50;;;;;;;2.63;0.80;;;;;;;-146.87;100.00;60295.22;4939983;28;20191;-46
2023/08/28 09:01:16;;;;;;;2.42;0.70;;;;;;;-146.87;100.00;60295.22;4938088;28;20299;-45
2023/08/28 09:03:43;;;;;;;2.92;0.65;;;;;;;-146.87;100.00;60295.22;4935456;28;20191;-47
2023/08/28 09:06:09;;;;;;;1.45;0.95;;;;;;;-146.87;100.00;60295.22;4937683;28;20175;-45
2023/08/28 09:08:38;;;;;;;3.30;0.80;;;;;;;-146.87;100.00;60295.22;4936169;28;20252;-46
2023/08/28 09:11:08;;;;;;;1.30;0.52;;;;;;;-146.87;100.00;60295.22;4933966;28;20222;-46
2023/08/28 09:13:38;;;;;;;2.88;0.70;;;;;;;-146.87;100.00;60295.22;4941615;28;20650;-45
2023/08/28 09:16:04;;;;;;;2.42;0.80;;;;;;;-146.87;100.00;60295.22;4938987;28;20202;-47
2023/08/28 09:18:30;;;;;;;2.50;0.70;;;;;;;-146.87;100.00;60295.22;4935991;28;21040;-46
2023/08/28 09:21:05;;;;;;;2.33;0.77;;;;;;;-146.87;100.00;60295.22;4937355;28;20282;-45
2023/08/28 09:23:34;;;;;;;1.13;0.55;;;;;;;-146.87;100.00;60295.22;4940926;28;20612;-44
2023/08/28 09:26:00;;;;;;;3.65;0.80;;;;;;;-146.87;100.00;60295.22;4937931;28;20186;-45
2023/08/28 09:28:26;;;;;;;1.92;0.68;;;;;;;-146.87;100.00;60295.22;4941754;28;20185;-45
2023/08/28 09:30:52;;;;;;;1.48;0.65;;;;;;;-146.87;100.00;60295.22;4942378;28;20211;-45
2023/08/28 09:33:17;;;;;;;2.00;0.70;;;;;;;-146.87;100.00;60295.22;4941736;28;20717;-43
2023/08/28 09:35:43;;;;;;;1.38;0.88;;;;;;;-146.87;100.00;60295.22;4940582;28;20191;-45
2023/08/28 09:38:10;;;;;;;1.73;0.80;;;;;;;-146.87;100.00;60295.22;4942473;28;20190;-44
2023/08/28 09:40:40;;;;;;;1.27;0.55;;;;;;;-146.87;100.00;60295.22;4939633;28;20857;-44
2023/08/28 09:43:13;;;;;;;1.25;0.60;;;;;;;-146.87;100.00;60295.22;4940111;28;20673;-46
2023/08/28 09:45:40;;;;;;;2.13;0.68;;;;;;;-146.87;100.00;60295.22;4937094;28;20188;-46
2023/08/28 09:48:07;;;;;;;1.23;0.70;;;;;;;-146.87;100.00;60295.22;4948321;28;20211;-46
2023/08/28 09:50:34;;;;;;;1.85;0.70;;;;;;;-146.87;100.00;60295.22;4941189;28;20626;-47
2023/08/28 09:53:20;;;;;;;1.48;0.60;;;;;;;-146.87;100.00;60295.22;4942936;28;20635;-47
2023/08/28 09:55:50;;;;;;;0.55;0.43;;;;;;;-146.87;100.00;60295.22;4952495;28;20190;-49
2023/08/28 09:58:16;;;;;;;0.40;0.40;;;;;;;-146.87;100.00;60295.22;4946503;28;20179;-46
2023/08/28 10:00:43;;;;;;;2.05;0.50;;;;;;;-146.87;100.00;60295.22;4943718;28;20218;-46
2023/08/28 10:03:13;;;;;;;1.52;0.60;;;;;;;-146.87;100.00;60295.22;4943843;28;20815;-47
2023/08/28 10:05:43;;;;;;;5.32;0.80;;;;;;;-146.87;100.00;60295.22;4942645;28;20198;-47
2023/08/28 10:08:10;;;;;;;1.80;0.98;;;;;;;-146.87;100.00;60295.22;4940597;28;20257;-46
2023/08/28 10:10:38;;;;;;;4.03;0.65;;;;;;;-146.87;100.00;60295.22;4942646;28;20298;-47
2023/08/28 10:13:13;;;;;;;1.23;0.80;;;;;;;-146.87;100.00;60295.22;4942860;28;20190;-46
2023/08/28 10:15:57;;;;;;;2.17;0.80;;;;;;;-146.87;100.00;60295.22;4941053;28;20183;-48
2023/08/28 10:18:35;;;;;;;2.40;0.80;;;;;;;-146.87;100.00;60295.22;4939426;28;20194;-46
2023/08/28 10:21:01;;;;;;;1.10;0.60;;;;;;;-146.87;100.00;60295.22;4943958;28;20456;-47
2023/08/28 10:23:28;;;;;;;1.45;0.63;;;;;;;-146.87;100.00;60295.22;4941272;28;20195;-45
2023/08/28 10:25:55;;;;;;;0.50;0.50;;;;;;;-146.87;100.00;60295.22;4940829;28;20179;-47
2023/08/28 10:28:22;;;;;;;2.17;0.70;;;;;;;-146.87;100.00;60295.22;4940995;28;20182;-46
2023/08/28 10:30:51;;;;;;;1.75;0.65;;;;;;;-146.87;100.00;60295.22;4940272;28;20334;-46
2023/08/28 10:33:20;;;;;;;1.48;0.60;;;;;;;-146.87;100.00;60295.22;4941150;28;20230;-49
2023/08/28 10:35:50;;;;;;;2.83;0.75;;;;;;;-146.87;100.00;60295.22;4936072;28;20287;-48
2023/08/28 10:38:17;;;;;;;1.98;0.68;;;;;;;-146.87;100.00;60295.22;4941897;28;20207;-46
2023/08/28 10:40:43;;;;;;;1.40;0.88;;;;;;;-146.87;100.00;60295.22;4936505;28;20250;-47
2023/08/28 10:43:10;;;;;;;1.60;0.80;;;;;;;-146.87;100.00;60295.22;4941153;28;20213;-46
2023/08/28 10:45:38;;;;;;;2.15;0.68;;;;;;;-146.87;100.00;60295.22;4938627;28;20620;-45
2023/08/28 10:48:05;;;;;;;0.88;0.60;;;;;;;-146.87;100.00;60295.22;4940355;28;20206;-46
2023/08/28 10:50:38;;;;;;;1.10;0.70;;;;;;;-146.87;100.00;60295.22;4937009;28;20209;-46
2023/08/28 10:53:04;;;;;;;1.05;0.80;;;;;;;-146.87;100.00;60295.22;4937565;28;20179;-46
2023/08/28 10:55:30;;;;;;;1.30;0.70;;;;;;;-146.87;100.00;60295.22;4940299;28;20183;-46
2023/08/28 10:58:02;;;;;;;5.05;0.70;;;;;;;-146.87;100.00;60295.22;4938404;28;21002;-45
2023/08/28 11:00:28;;;;;;;1.20;0.63;;;;;;;-146.87;100.00;60295.22;4938189;28;20249;-46
2023/08/28 11:03:06;;;;;;;1.95;0.73;;;;;;;-146.87;100.00;60295.22;4939207;28;20195;-47
2023/08/28 11:05:33;;;;;;;0.77;0.40;;;;;;;-146.87;100.00;60295.22;4936633;28;20301;-46
2023/08/28 11:08:04;;;;;;;2.72;1.10;;;;;;;-146.87;100.00;60295.22;4941658;28;20545;-45